Time;durP1;ratioP1;P1;durP2;ratioP2;P2;SDS_P1;SDS_P2;PMS_P1;PMS_P2;Temp;Humidity;BMP_temperature;BMP_pressure;BME280_temperature;BME280_humidity;BME280_pressure;Samples;Min_cycle;Max_cycle;Signal;HPM_P1;HPM_P2
2021/03/31 00:01:11;;;;;;;8.50;5.27;;;;;;;10.59;71.18;102057.41;5096886;28;20201;-71
2021/03/31 00:03:36;;;;;;;10.77;5.23;;;;;;;10.58;70.98;102053.00;5097132;28;20190;-71
2021/03/31 00:06:01;;;;;;;8.30;4.80;;;;;;;10.53;71.00;102052.28;5097103;28;20171;-72
2021/03/31 00:08:26;;;;;;;8.33;4.87;;;;;;;10.54;70.83;102051.38;5097101;28;20229;-72
2021/03/31 00:10:53;;;;;;;9.60;5.30;;;;;;;10.45;71.70;102049.88;5097004;28;20174;-72
2021/03/31 00:13:19;;;;;;;8.47;5.57;;;;;;;10.43;71.82;102046.41;5095555;28;20241;-72
2021/03/31 00:15:44;;;;;;;13.03;5.37;;;;;;;10.45;71.21;102049.00;5096848;28;20174;-72
2021/03/31 00:18:12;;;;;;;8.60;5.13;;;;;;;10.42;71.89;102043.78;5095080;28;20200;-73
2021/03/31 00:20:38;;;;;;;8.70;4.77;;;;;;;10.30;71.85;102029.03;5097075;28;20174;-72
2021/03/31 00:23:05;;;;;;;11.47;5.43;;;;;;;10.30;72.15;102037.03;5096901;28;20181;-72
2021/03/31 00:25:31;;;;;;;9.07;4.80;;;;;;;10.22;72.46;102031.94;5097054;28;20695;-72
2021/03/31 00:27:56;;;;;;;9.37;5.33;;;;;;;10.20;72.24;102028.47;5095644;28;20182;-72
2021/03/31 00:30:22;;;;;;;10.20;5.73;;;;;;;10.09;71.98;102027.03;5096591;28;20214;-72
2021/03/31 00:32:47;;;;;;;8.57;4.70;;;;;;;9.96;72.95;102026.53;5096662;28;20174;-72
2021/03/31 00:35:13;;;;;;;9.80;5.70;;;;;;;9.90;73.77;102035.59;5096652;28;20227;-72
2021/03/31 00:37:38;;;;;;;12.17;6.10;;;;;;;9.88;74.32;102032.09;5096450;28;20177;-72
2021/03/31 00:40:12;;;;;;;7.27;5.03;;;;;;;9.92;73.96;102032.88;5095259;28;20194;-72
2021/03/31 00:42:38;;;;;;;10.07;5.17;;;;;;;9.78;74.24;102029.78;5095733;28;20163;-71
2021/03/31 00:45:05;;;;;;;10.47;5.57;;;;;;;9.65;74.15;102027.47;5097198;28;20201;-72
2021/03/31 00:47:31;;;;;;;9.93;5.80;;;;;;;9.48;74.86;102026.22;5097096;28;20208;-72
2021/03/31 00:49:56;;;;;;;8.50;5.40;;;;;;;9.41;75.44;102025.53;5096390;28;20264;-72
2021/03/31 00:52:21;;;;;;;8.43;5.87;;;;;;;9.35;75.67;102020.41;5096681;28;20166;-72
2021/03/31 00:54:47;;;;;;;13.17;5.70;;;;;;;9.16;75.91;102019.16;5096617;28;20166;-71
2021/03/31 00:57:12;;;;;;;8.63;5.50;;;;;;;8.95;76.21;102017.97;5096741;28;20177;-71
2021/03/31 00:59:39;;;;;;;9.37;5.37;;;;;;;8.73;76.98;102017.69;5095384;28;20218;-72
2021/03/31 01:02:04;;;;;;;9.50;5.40;;;;;;;8.81;77.48;102015.69;5095246;28;20265;-72
2021/03/31 01:04:29;;;;;;;12.80;5.80;;;;;;;8.92;76.88;102016.28;5096699;28;20260;-71
2021/03/31 01:06:55;;;;;;;15.63;6.80;;;;;;;8.93;76.95;102011.81;5096768;28;20174;-73
2021/03/31 01:09:20;;;;;;;9.70;6.27;;;;;;;8.86;77.05;102011.09;5096508;28;20698;-72
2021/03/31 01:11:56;;;;;;;6.63;5.43;;;;;;;8.76;77.89;102014.94;5095621;28;20284;-72
2021/03/31 01:14:33;;;;;;;13.87;6.43;;;;;;;8.93;78.22;102012.69;5096320;28;20177;-72
2021/03/31 01:17:04;;;;;;;10.77;6.33;;;;;;;9.08;77.01;102012.25;5096494;28;20182;-72
2021/03/31 01:20:00;;;;;;;9.83;6.73;;;;;;;9.39;76.53;102003.41;5095460;28;20190;-72
2021/03/31 01:22:53;;;;;;;9.73;6.10;;;;;;;9.56;75.92;102000.22;5095431;28;20623;-73
2021/03/31 01:25:42;;;;;;;10.40;6.33;;;;;;;9.51;75.53;102005.69;5095423;28;20214;-72
2021/03/31 01:28:34;;;;;;;16.07;6.90;;;;;;;9.61;75.94;101998.28;5078504;28;20202;-73
2021/03/31 01:31:28;;;;;;;10.83;6.50;;;;;;;9.55;75.93;101990.47;5079042;28;20193;-71
2021/03/31 01:34:22;;;;;;;12.30;6.50;;;;;;;9.29;76.29;101994.81;5096748;28;20556;-72
2021/03/31 01:36:49;;;;;;;12.17;6.50;;;;;;;9.13;77.43;102003.28;5096800;28;20201;-72
2021/03/31 01:39:16;;;;;;;11.37;6.53;;;;;;;9.19;77.49;102006.63;5095179;28;20225;-72
2021/03/31 01:41:42;;;;;;;12.63;7.30;;;;;;;9.35;76.69;102002.63;5095164;28;20171;-73
2021/03/31 01:44:09;;;;;;;13.27;7.23;;;;;;;9.44;76.41;101996.13;5094987;28;20198;-72
2021/03/31 01:46:36;;;;;;;11.70;6.80;;;;;;;9.41;76.54;101998.91;5094953;28;20664;-72
2021/03/31 01:49:03;;;;;;;12.87;6.57;;;;;;;9.44;76.44;102001.47;5094934;28;20301;-72
2021/03/31 01:51:29;;;;;;;11.73;7.10;;;;;;;9.29;76.70;101999.22;5097655;28;20181;-73
2021/03/31 01:53:55;;;;;;;8.77;6.70;;;;;;;9.33;77.02;101992.94;5094677;28;20181;-72
2021/03/31 01:56:21;;;;;;;15.07;6.80;;;;;;;9.22;76.91;101993.22;5094631;28;20332;-72
2021/03/31 01:58:47;;;;;;;10.90;6.93;;;;;;;9.15;77.29;101990.78;5094814;28;20307;-72
2021/03/31 02:01:17;;;;;;;9.53;6.60;;;;;;;9.12;77.28;101990.88;5095267;28;20642;-72
2021/03/31 02:03:44;;;;;;;15.47;7.53;;;;;;;9.08;77.71;101990.97;5094368;28;20194;-73
2021/03/31 02:06:10;;;;;;;17.23;7.57;;;;;;;8.89;77.34;101991.50;5094813;28;20212;-71
2021/03/31 02:08:35;;;;;;;12.57;7.47;;;;;;;8.97;78.38;101982.41;5095323;28;20197;-71
2021/03/31 02:11:01;;;;;;;11.00;7.23;;;;;;;8.98;77.69;101983.28;5094545;28;20174;-71
2021/03/31 02:13:27;;;;;;;13.77;7.33;;;;;;;8.90;77.85;101979.94;5093943;28;20178;-72
2021/03/31 02:15:57;;;;;;;16.50;7.30;;;;;;;9.02;78.37;101983.16;5095217;28;20535;-72
2021/03/31 02:18:24;;;;;;;13.23;7.43;;;;;;;9.13;77.75;101976.63;5093669;28;20208;-73
2021/03/31 02:20:52;;;;;;;14.73;7.73;;;;;;;9.06;77.93;101979.47;5094179;28;20173;-72
2021/03/31 02:23:18;;;;;;;17.33;6.50;;;;;;;8.44;78.11;101981.16;5093566;28;20182;-72
2021/03/31 02:25:46;;;;;;;9.40;6.30;;;;;;;7.94;80.39;101971.78;5093687;28;20166;-73
2021/03/31 02:28:12;;;;;;;11.73;6.43;;;;;;;7.80;81.58;101974.72;5093398;28;20248;-73
2021/03/31 02:30:37;;;;;;;11.13;7.07;;;;;;;7.72;83.00;101976.69;5094752;28;20208;-73
2021/03/31 02:33:03;;;;;;;12.20;7.00;;;;;;;7.58;82.36;101977.03;5093450;28;20166;-72
2021/03/31 02:35:30;;;;;;;12.37;6.87;;;;;;;7.50;83.42;101966.56;5093832;28;20261;-72
2021/03/31 02:38:07;;;;;;;12.90;7.47;;;;;;;7.71;83.31;101967.84;5094355;28;20169;-73
2021/03/31 02:40:34;;;;;;;13.90;6.97;;;;;;;7.52;82.77;101971.84;5093271;28;20189;-72
2021/03/31 02:43:01;;;;;;;16.00;7.03;;;;;;;7.51;83.74;101970.97;5093309;28;20174;-72
2021/03/31 02:45:28;;;;;;;13.70;7.10;;;;;;;7.32;83.25;101974.06;5093345;28;20229;-72
2021/03/31 02:47:54;;;;;;;13.90;7.70;;;;;;;7.71;82.33;101969.63;5094028;28;20173;-73
2021/03/31 02:50:22;;;;;;;17.87;8.37;;;;;;;7.73;83.02;101968.69;5094178;28;20219;-73
2021/03/31 02:52:49;;;;;;;12.47;8.57;;;;;;;7.57;83.53;101967.31;5093427;28;20177;-73
2021/03/31 02:55:15;;;;;;;16.47;9.00;;;;;;;7.77;81.85;101972.16;5093383;28;20165;-71
2021/03/31 02:57:41;;;;;;;15.00;10.27;;;;;;;8.24;83.07;101973.69;5094764;28;20171;-72
2021/03/31 03:00:08;;;;;;;15.87;9.17;;;;;;;7.95;82.54;101966.41;5094643;28;20507;-72
2021/03/31 03:02:36;;;;;;;15.87;8.10;;;;;;;8.11;81.10;101961.59;5095199;28;20178;-71
2021/03/31 03:05:02;;;;;;;11.40;7.40;;;;;;;7.70;81.46;101960.78;5092967;28;20198;-72
2021/03/31 03:07:27;;;;;;;12.17;7.23;;;;;;;7.32;83.09;101966.09;5094505;28;20173;-72
2021/03/31 03:09:53;;;;;;;13.27;7.90;;;;;;;7.10;84.46;101963.91;5092948;28;20190;-72
2021/03/31 03:12:18;;;;;;;13.67;9.07;;;;;;;7.09;85.26;101967.47;5094666;28;20166;-72
2021/03/31 03:14:47;;;;;;;16.27;8.83;;;;;;;6.94;85.09;101954.47;5097117;28;20178;-73
2021/03/31 03:17:12;;;;;;;18.70;10.80;;;;;;;7.42;86.00;101949.03;5099266;28;20182;-73
2021/03/31 03:19:38;;;;;;;20.23;10.20;;;;;;;7.51;84.23;101949.72;5100929;28;20193;-72
2021/03/31 03:22:03;;;;;;;15.23;9.13;;;;;;;7.44;83.94;101942.81;5098571;28;20173;-73
2021/03/31 03:24:29;;;;;;;17.03;9.90;;;;;;;7.48;84.60;101943.59;5105586;28;20197;-72
2021/03/31 03:26:56;;;;;;;15.53;9.90;;;;;;;7.51;84.35;101939.09;5104602;28;20171;-72
2021/03/31 03:29:22;;;;;;;14.70;9.50;;;;;;;7.61;85.11;101939.75;5099282;28;20195;-72
2021/03/31 03:31:47;;;;;;;17.57;9.17;;;;;;;7.65;84.10;101944.09;5098378;28;20280;-72
2021/03/31 03:34:13;;;;;;;15.90;8.40;;;;;;;7.50;83.26;101941.78;5099042;28;20174;-73
2021/03/31 03:36:40;;;;;;;10.40;7.80;;;;;;;7.31;84.02;101937.78;5098572;28;20166;-73
2021/03/31 03:39:05;;;;;;;15.13;9.50;;;;;;;7.45;83.81;101941.03;5097546;28;20703;-72
2021/03/31 03:41:31;;;;;;;13.63;9.23;;;;;;;7.19;84.87;101936.28;5096638;28;20171;-72
2021/03/31 03:43:56;;;;;;;15.53;9.50;;;;;;;7.32;85.42;101931.56;5097895;28;20742;-73
2021/03/31 03:46:22;;;;;;;18.97;11.00;;;;;;;7.86;84.50;101929.44;5097832;28;20174;-71
2021/03/31 03:48:48;;;;;;;18.20;8.87;;;;;;;7.64;82.57;101928.19;5098392;28;20680;-72
2021/03/31 03:51:13;;;;;;;11.37;8.70;;;;;;;6.76;84.28;101933.63;5098197;28;20165;-72
2021/03/31 03:53:38;;;;;;;14.20;8.43;;;;;;;6.69;85.49;101932.88;5097050;28;20170;-72
2021/03/31 03:56:09;;;;;;;16.77;9.10;;;;;;;6.58;85.66;101924.22;5097847;28;20625;-72
2021/03/31 03:58:35;;;;;;;16.43;9.10;;;;;;;6.54;86.65;101925.19;5097659;28;20194;-72
2021/03/31 04:01:00;;;;;;;15.20;9.30;;;;;;;6.56;86.72;101923.38;5097422;28;20226;-72
2021/03/31 04:03:25;;;;;;;14.33;9.00;;;;;;;6.40;87.16;101932.53;5097020;28;20206;-72
2021/03/31 04:05:51;;;;;;;19.40;9.47;;;;;;;6.32;86.98;101929.13;5097084;28;20178;-72
2021/03/31 04:08:16;;;;;;;13.67;9.00;;;;;;;6.15;87.26;101921.50;5097752;28;20170;-72
2021/03/31 04:10:43;;;;;;;12.47;8.03;;;;;;;5.94;87.00;101922.72;5096331;28;20174;-72
2021/03/31 04:13:08;;;;;;;13.83;9.23;;;;;;;6.01;88.52;101923.50;5096323;28;20175;-72
2021/03/31 04:15:33;;;;;;;17.87;9.77;;;;;;;6.20;88.31;101920.50;5097702;28;20661;-72
2021/03/31 04:18:01;;;;;;;13.23;8.70;;;;;;;6.12;87.60;101914.47;5097409;28;20193;-71
2021/03/31 04:20:26;;;;;;;15.00;9.30;;;;;;;6.04;87.91;101904.91;5095213;28;20248;-72
2021/03/31 04:22:52;;;;;;;14.63;8.70;;;;;;;6.04;88.03;101902.25;5095580;28;20183;-73
2021/03/31 04:25:21;;;;;;;12.40;8.53;;;;;;;6.00;88.06;101911.16;5094263;28;20541;-72
2021/03/31 04:27:48;;;;;;;17.77;9.70;;;;;;;6.07;88.43;101910.16;5095072;28;20198;-72
2021/03/31 04:30:15;;;;;;;18.03;10.93;;;;;;;6.00;88.00;101908.50;5107037;28;20592;-72
2021/03/31 04:32:43;;;;;;;20.87;10.67;;;;;;;5.99;88.77;101907.63;5101911;28;20189;-72
2021/03/31 04:35:09;;;;;;;16.43;10.90;;;;;;;5.92;88.46;101909.47;5097981;28;20174;-73
2021/03/31 04:37:35;;;;;;;16.67;10.87;;;;;;;5.93;88.54;101905.94;5096447;28;20170;-72
2021/03/31 04:40:03;;;;;;;15.53;10.17;;;;;;;5.91;88.79;101902.44;5097548;28;20239;-72
2021/03/31 04:42:29;;;;;;;16.67;10.83;;;;;;;5.86;88.90;101901.63;5098024;28;20179;-72
2021/03/31 04:44:54;;;;;;;21.33;10.93;;;;;;;5.84;89.31;101902.53;5097732;28;20201;-72
2021/03/31 04:47:19;;;;;;;17.67;10.50;;;;;;;5.94;88.46;101901.50;5096822;28;20182;-72
2021/03/31 04:49:44;;;;;;;27.60;15.20;;;;;;;7.06;87.49;101897.59;5096960;28;20195;-73
2021/03/31 04:52:10;;;;;;;19.73;11.77;;;;;;;7.48;83.59;101898.44;5096557;28;20174;-72
2021/03/31 04:54:35;;;;;;;18.00;7.80;;;;;;;6.92;82.01;101902.34;5096559;28;20534;-73
2021/03/31 04:57:00;;;;;;;16.53;8.33;;;;;;;6.37;83.68;101912.25;5096162;28;20192;-73
2021/03/31 04:59:26;;;;;;;13.13;8.30;;;;;;;6.22;85.55;101905.44;5096715;28;20228;-71
2021/03/31 05:01:51;;;;;;;15.57;8.23;;;;;;;6.12;86.24;101905.63;5096088;28;20174;-71
2021/03/31 05:04:16;;;;;;;14.20;8.33;;;;;;;6.11;86.51;101904.75;5097430;28;20209;-71
2021/03/31 05:06:42;;;;;;;16.67;10.03;;;;;;;6.23;87.01;101906.31;5096176;28;20202;-73
2021/03/31 05:09:07;;;;;;;14.03;9.10;;;;;;;6.25;86.39;101899.22;5096394;28;20194;-71
2021/03/31 05:11:33;;;;;;;13.80;8.43;;;;;;;6.10;86.83;101903.00;5096413;28;20257;-71
2021/03/31 05:13:58;;;;;;;15.93;9.33;;;;;;;6.22;87.03;101901.91;5096001;28;20174;-71
2021/03/31 05:16:23;;;;;;;16.50;9.83;;;;;;;6.42;86.63;101899.78;5095716;28;20174;-72
2021/03/31 05:18:48;;;;;;;17.83;9.23;;;;;;;6.47;85.68;101900.56;5096518;28;20198;-73
2021/03/31 05:21:14;;;;;;;17.03;9.87;;;;;;;6.64;84.49;101894.94;5095120;28;20196;-72
2021/03/31 05:23:39;;;;;;;17.17;8.77;;;;;;;6.65;84.57;101901.97;5096262;28;20193;-73
2021/03/31 05:26:04;;;;;;;16.53;8.87;;;;;;;6.72;84.63;101898.31;5095943;28;20180;-72
2021/03/31 05:28:30;;;;;;;16.40;8.77;;;;;;;6.80;84.22;101898.16;5095327;28;20217;-72
2021/03/31 05:30:55;;;;;;;15.60;8.17;;;;;;;6.46;82.44;101900.59;5095386;28;20197;-72
2021/03/31 05:33:20;;;;;;;11.20;7.77;;;;;;;6.57;84.03;101902.13;5095638;28;20185;-73
2021/03/31 05:35:46;;;;;;;16.27;9.27;;;;;;;6.70;83.30;101899.25;5095767;28;20174;-73
2021/03/31 05:38:11;;;;;;;14.07;7.47;;;;;;;6.85;82.73;101886.53;5095206;28;20274;-73
2021/03/31 05:40:36;;;;;;;11.73;7.73;;;;;;;6.76;82.31;101889.41;5096473;28;20174;-72
2021/03/31 05:43:02;;;;;;;14.60;7.73;;;;;;;6.66;82.36;101886.94;5096134;28;20178;-73
2021/03/31 05:45:28;;;;;;;15.83;7.97;;;;;;;6.74;82.89;101887.69;5096105;28;20208;-72
2021/03/31 05:47:53;;;;;;;12.73;7.80;;;;;;;6.75;82.45;101886.78;5077893;28;20546;-72
2021/03/31 05:50:19;;;;;;;16.03;8.17;;;;;;;6.61;82.99;101888.81;5094268;28;20282;-71
2021/03/31 05:52:45;;;;;;;14.07;8.17;;;;;;;6.61;82.32;101880.84;5094685;28;20258;-73
2021/03/31 05:55:14;;;;;;;13.97;7.70;;;;;;;6.62;83.05;101887.91;5095052;28;20635;-72
2021/03/31 05:57:40;;;;;;;17.03;8.13;;;;;;;6.61;82.85;101888.81;5095048;28;20542;-71
2021/03/31 06:00:14;;;;;;;19.27;8.50;;;;;;;6.69;83.30;101886.88;5095564;28;20674;-73
2021/03/31 06:02:40;;;;;;;19.33;8.63;;;;;;;6.81;82.04;101889.28;5095550;28;20161;-72
2021/03/31 06:05:07;;;;;;;17.37;8.93;;;;;;;6.84;82.70;101890.09;5095345;28;20284;-72
2021/03/31 06:07:32;;;;;;;17.83;8.20;;;;;;;6.77;82.45;101885.84;5095591;28;20168;-72
2021/03/31 06:10:08;;;;;;;16.10;9.37;;;;;;;7.00;82.22;101882.69;5095306;28;20200;-73
2021/03/31 06:12:35;;;;;;;16.43;8.00;;;;;;;7.20;81.58;101880.47;5095013;28;20181;-72
2021/03/31 06:15:39;;;;;;;23.40;8.63;;;;;;;7.22;80.79;101888.41;5095204;28;20176;-72
2021/03/31 06:18:09;;;;;;;12.90;7.87;;;;;;;7.25;80.18;101883.03;5096042;28;20176;-72
2021/03/31 06:21:05;;;;;;;15.43;7.97;;;;;;;7.48;79.93;101879.84;5094329;28;20226;-72
2021/03/31 06:26:17;;;;;;;15.07;7.50;;;;;;;7.80;77.94;101900.31;5096562;28;20573;-72
2021/03/31 06:28:43;;;;;;;13.90;7.90;;;;;;;7.96;77.99;101887.53;5096372;28;20263;-72
2021/03/31 06:31:12;;;;;;;10.20;6.67;;;;;;;8.12;77.47;101888.88;5103020;28;20177;-72
2021/03/31 06:33:39;;;;;;;15.10;7.93;;;;;;;8.14;77.75;101887.91;5096000;28;20185;-72
2021/03/31 06:36:06;;;;;;;14.70;6.80;;;;;;;8.15;77.27;101889.66;5093599;28;20234;-72
2021/03/31 06:38:33;;;;;;;12.47;7.37;;;;;;;8.29;76.88;101889.31;5094013;28;20658;-72
2021/03/31 06:41:15;;;;;;;14.07;8.17;;;;;;;8.26;76.47;101892.06;5093028;28;20633;-72
2021/03/31 06:43:53;;;;;;;14.73;7.60;;;;;;;8.45;75.97;101892.47;5094702;28;20182;-73
2021/03/31 06:46:43;;;;;;;12.70;7.63;;;;;;;8.51;76.46;101892.28;5095915;28;20168;-71
2021/03/31 06:49:09;;;;;;;12.53;7.40;;;;;;;8.69;75.64;101894.44;5093638;28;20190;-71
2021/03/31 06:51:34;;;;;;;13.27;7.43;;;;;;;8.87;74.91;101890.38;5094087;28;20808;-71
2021/03/31 06:54:14;;;;;;;11.03;6.80;;;;;;;9.02;74.68;101886.41;5093751;28;20170;-71
2021/03/31 06:56:39;;;;;;;11.57;6.70;;;;;;;9.20;73.92;101892.97;5092389;28;20226;-72
2021/03/31 06:59:05;;;;;;;12.23;6.93;;;;;;;9.38;73.27;101895.06;5094112;28;20194;-73
2021/03/31 07:01:32;;;;;;;12.87;7.77;;;;;;;9.45;73.80;101896.63;5096599;28;20190;-73
2021/03/31 07:04:07;;;;;;;14.53;7.77;;;;;;;9.58;72.45;101897.97;5092771;28;20198;-72
2021/03/31 07:06:33;;;;;;;14.83;8.27;;;;;;;9.54;71.97;101892.78;5093232;28;20634;-72
2021/03/31 07:08:58;;;;;;;12.03;7.50;;;;;;;9.60;72.41;101888.13;5093208;28;20201;-72
2021/03/31 07:11:33;;;;;;;16.93;7.63;;;;;;;9.67;71.99;101888.81;5095068;28;20699;-71
2021/03/31 07:14:00;;;;;;;14.17;7.80;;;;;;;9.80;71.91;101889.28;5092569;28;20223;-72
2021/03/31 07:16:26;;;;;;;15.80;8.10;;;;;;;10.17;71.30;101887.13;5094366;28;20257;-71
2021/03/31 07:18:51;;;;;;;13.03;8.33;;;;;;;10.15;71.56;101885.44;5092649;28;20198;-72
2021/03/31 07:21:17;;;;;;;12.63;7.30;;;;;;;10.38;70.99;101887.31;5092755;28;20185;-71
2021/03/31 07:23:42;;;;;;;10.70;7.67;;;;;;;10.48;70.54;101888.75;5094351;28;20198;-72
2021/03/31 07:26:08;;;;;;;17.23;8.97;;;;;;;10.53;70.26;101882.31;5092887;28;20234;-72
2021/03/31 07:28:33;;;;;;;12.37;7.80;;;;;;;10.72;69.80;101881.63;5092420;28;20716;-73
2021/03/31 07:30:59;;;;;;;11.97;7.93;;;;;;;10.91;69.28;101877.38;5093836;28;20179;-70
2021/03/31 07:33:34;;;;;;;15.93;8.30;;;;;;;11.13;69.48;101874.72;5093528;28;20185;-73
2021/03/31 07:36:00;;;;;;;15.23;8.23;;;;;;;11.19;68.46;101878.06;5093026;28;20533;-71
2021/03/31 07:38:26;;;;;;;13.33;7.73;;;;;;;11.32;68.36;101877.56;5093283;28;20179;-71
2021/03/31 07:40:52;;;;;;;14.77;7.77;;;;;;;11.52;68.70;101881.22;5093148;28;20205;-72
2021/03/31 07:43:34;;;;;;;14.40;7.40;;;;;;;11.77;68.19;101881.06;5093408;28;20285;-73
2021/03/31 07:46:07;;;;;;;15.23;7.83;;;;;;;12.01;67.50;101878.34;5093216;28;20158;-72
2021/03/31 07:48:33;;;;;;;12.97;7.87;;;;;;;12.20;67.30;101872.13;5092235;28;20562;-73
2021/03/31 07:51:15;;;;;;;16.10;8.20;;;;;;;12.36;66.64;101869.66;5091961;28;20216;-72
2021/03/31 07:53:49;;;;;;;13.57;8.00;;;;;;;12.58;67.24;101876.72;5093249;28;20166;-72
2021/03/31 07:56:22;;;;;;;16.37;8.20;;;;;;;12.73;65.69;101874.25;5093287;28;20194;-72
2021/03/31 07:59:09;;;;;;;13.10;7.20;;;;;;;12.84;65.34;101869.25;5093262;28;20194;-72
2021/03/31 08:01:40;;;;;;;12.30;7.40;;;;;;;12.91;65.68;101869.84;5097248;28;20162;-72
2021/03/31 08:04:07;;;;;;;17.10;9.20;;;;;;;12.89;65.61;101871.72;5096893;28;20198;-72
2021/03/31 08:06:36;;;;;;;15.60;9.03;;;;;;;13.05;65.84;101869.22;5095746;28;20223;-72
2021/03/31 08:09:06;;;;;;;19.37;9.00;;;;;;;12.91;65.81;101871.66;5095882;28;20202;-72
2021/03/31 08:11:44;;;;;;;11.90;7.60;;;;;;;13.31;64.69;101870.69;5097724;28;20247;-72
2021/03/31 08:14:12;;;;;;;14.17;9.17;;;;;;;13.50;63.01;101871.53;5096743;28;20166;-72
2021/03/31 08:16:49;;;;;;;11.03;7.67;;;;;;;13.66;61.82;101864.47;5097680;28;20170;-72
2021/03/31 08:19:17;;;;;;;14.10;7.80;;;;;;;13.61;62.26;101871.00;5096685;28;20194;-72
2021/03/31 08:21:46;;;;;;;15.47;7.53;;;;;;;13.90;60.63;101867.75;5096324;28;20174;-72
2021/03/31 08:24:13;;;;;;;14.07;7.77;;;;;;;14.04;60.85;101867.03;5095486;28;20259;-71
2021/03/31 08:26:38;;;;;;;13.50;7.57;;;;;;;14.13;60.02;101863.91;5097026;28;20186;-71
2021/03/31 08:29:06;;;;;;;14.00;7.67;;;;;;;14.21;59.82;101863.50;5094628;28;20225;-71
2021/03/31 08:31:39;;;;;;;11.50;6.87;;;;;;;14.30;59.23;101854.97;5096130;28;20550;-72
2021/03/31 08:34:06;;;;;;;13.60;7.97;;;;;;;14.54;59.59;101861.78;5094754;28;20515;-72
2021/03/31 08:36:31;;;;;;;13.03;7.97;;;;;;;14.59;59.23;101853.47;5095962;28;20170;-70
2021/03/31 08:38:58;;;;;;;13.03;7.50;;;;;;;14.85;57.69;101852.03;5096203;28;20189;-72
2021/03/31 08:41:26;;;;;;;13.93;7.43;;;;;;;14.84;57.30;101850.31;5094489;28;20174;-71
2021/03/31 08:44:11;;;;;;;19.13;8.33;;;;;;;14.87;56.43;101848.34;5094445;28;20190;-71
2021/03/31 08:46:36;;;;;;;19.30;8.77;;;;;;;14.80;56.03;101840.69;5094564;28;20189;-70
2021/03/31 08:49:02;;;;;;;14.87;8.70;;;;;;;15.00;55.13;101845.84;5095491;28;20600;-72
2021/03/31 08:51:27;;;;;;;15.60;8.00;;;;;;;15.13;54.24;101837.94;5095671;28;20198;-70
2021/03/31 08:53:52;;;;;;;16.93;9.03;;;;;;;15.22;53.67;101830.22;5094584;28;20618;-71
2021/03/31 08:56:22;;;;;;;13.97;8.00;;;;;;;15.52;53.02;101832.13;5095871;28;20177;-71
2021/03/31 08:58:50;;;;;;;16.77;9.97;;;;;;;15.75;52.11;101833.53;5094357;28;20193;-72
2021/03/31 09:01:30;;;;;;;14.60;8.97;;;;;;;15.88;51.37;101826.44;5095481;28;20181;-72
2021/03/31 09:04:20;;;;;;;19.97;9.77;;;;;;;15.88;49.47;101829.13;5094473;28;20232;-72
2021/03/31 09:06:46;;;;;;;19.07;10.93;;;;;;;16.11;49.20;101817.00;5094082;28;20546;-72
2021/03/31 09:09:11;;;;;;;21.63;11.40;;;;;;;16.19;48.35;101825.47;5095309;28;20277;-72
2021/03/31 09:11:37;;;;;;;20.93;11.27;;;;;;;16.23;47.23;101816.25;5093897;28;20250;-72
2021/03/31 09:14:22;;;;;;;20.17;11.60;;;;;;;16.34;47.45;101818.28;5095281;28;20646;-71
2021/03/31 09:16:55;;;;;;;19.13;11.30;;;;;;;16.27;45.91;101807.00;5094002;28;20167;-71
2021/03/31 09:19:21;;;;;;;20.60;11.87;;;;;;;16.57;44.77;101809.66;5095264;28;20197;-71
2021/03/31 09:21:46;;;;;;;19.10;10.03;;;;;;;16.79;45.59;101809.22;5093874;28;20530;-72
2021/03/31 09:24:15;;;;;;;18.13;10.10;;;;;;;16.81;45.04;101807.28;5094869;28;20190;-71
2021/03/31 09:26:41;;;;;;;19.57;11.00;;;;;;;17.06;43.02;101807.41;5094891;28;20693;-72
2021/03/31 09:29:13;;;;;;;16.70;10.50;;;;;;;17.11;43.14;101805.31;5093568;28;20241;-72
2021/03/31 09:31:40;;;;;;;17.80;11.13;;;;;;;16.94;42.24;101810.03;5094912;28;20170;-71
2021/03/31 09:34:05;;;;;;;17.80;10.23;;;;;;;17.23;42.73;101808.16;5093817;28;20173;-71
2021/03/31 09:36:30;;;;;;;19.17;11.00;;;;;;;17.47;42.72;101806.56;5094619;28;20650;-72
2021/03/31 09:38:56;;;;;;;17.80;10.53;;;;;;;17.76;41.73;101801.91;5094390;28;20194;-72
2021/03/31 09:41:21;;;;;;;26.80;11.53;;;;;;;18.02;40.60;101787.50;5093165;28;20175;-71
2021/03/31 09:43:47;;;;;;;20.90;11.93;;;;;;;18.04;40.66;101787.41;5093273;28;20214;-72
2021/03/31 09:46:13;;;;;;;18.23;10.50;;;;;;;18.22;40.46;101786.13;5093413;28;20177;-71
2021/03/31 09:48:38;;;;;;;15.73;9.97;;;;;;;18.29;40.69;101781.16;5093417;28;20186;-71
2021/03/31 09:51:11;;;;;;;19.57;11.57;;;;;;;18.08;39.84;101772.72;5094607;28;20170;-72
2021/03/31 09:53:37;;;;;;;20.47;11.80;;;;;;;18.11;40.05;101783.28;5094758;28;20174;-72
2021/03/31 09:56:03;;;;;;;22.40;11.97;;;;;;;18.09;40.90;101774.44;5093990;28;20223;-71
2021/03/31 09:58:29;;;;;;;20.63;10.63;;;;;;;18.52;39.99;101771.41;5075930;28;20193;-72
2021/03/31 10:00:54;;;;;;;20.90;11.47;;;;;;;18.38;40.61;101773.25;5094570;28;20202;-72
2021/03/31 10:03:22;;;;;;;18.07;10.53;;;;;;;18.32;39.27;101768.28;5093900;28;20193;-72
2021/03/31 10:05:48;;;;;;;17.90;10.07;;;;;;;18.81;38.34;101758.53;5093839;28;20190;-71
2021/03/31 10:08:22;;;;;;;22.70;12.10;;;;;;;18.85;38.05;101760.03;5093770;28;20269;-72
2021/03/31 10:10:52;;;;;;;17.50;10.87;;;;;;;18.72;38.21;101758.22;5093907;28;20234;-72
2021/03/31 10:13:19;;;;;;;21.00;10.50;;;;;;;18.79;38.16;101760.47;5094497;28;20645;-71
2021/03/31 10:15:54;;;;;;;17.93;10.53;;;;;;;19.22;37.38;101759.03;5094076;28;20173;-72
2021/03/31 10:18:20;;;;;;;19.07;10.57;;;;;;;19.12;37.25;101751.72;5094048;28;20158;-71
2021/03/31 10:20:46;;;;;;;22.43;11.17;;;;;;;19.27;37.12;101750.56;5092587;28;20169;-71
2021/03/31 10:23:29;;;;;;;18.43;10.40;;;;;;;19.38;36.30;101731.72;5092297;28;20205;-73
2021/03/31 10:26:24;;;;;;;19.60;10.97;;;;;;;19.42;36.34;101732.34;5094125;28;20167;-72
2021/03/31 10:28:51;;;;;;;18.40;9.73;;;;;;;19.89;35.46;101743.13;5093729;28;20202;-71
2021/03/31 10:31:22;;;;;;;20.03;10.23;;;;;;;19.84;35.56;101723.66;5094304;28;20269;-73
2021/03/31 10:33:47;;;;;;;15.77;9.73;;;;;;;20.25;34.88;101728.53;5094668;28;20257;-72
2021/03/31 10:36:33;;;;;;;22.90;11.37;;;;;;;20.36;34.68;101722.22;5094133;28;20178;-73
2021/03/31 10:39:38;;;;;;;16.60;10.30;;;;;;;20.61;34.01;101729.28;5094404;28;20194;-72
2021/03/31 10:47:40;;;;;;;16.17;9.60;;;;;;;20.43;34.86;101707.22;5095256;28;20161;-72
2021/03/31 10:50:07;;;;;;;20.00;10.73;;;;;;;20.26;32.38;101705.00;5095407;28;20216;-72
2021/03/31 10:52:35;;;;;;;16.73;9.93;;;;;;;20.02;33.20;101699.66;5095566;28;20268;-72
2021/03/31 10:55:00;;;;;;;15.43;9.27;;;;;;;20.74;32.24;101700.19;5095309;28;20178;-72
2021/03/31 10:57:26;;;;;;;17.47;10.00;;;;;;;20.56;31.37;101698.97;5093199;28;20170;-74
2021/03/31 10:59:51;;;;;;;21.03;9.57;;;;;;;20.50;31.67;101694.06;5092965;28;20197;-72
2021/03/31 11:02:16;;;;;;;18.67;9.93;;;;;;;20.52;32.42;101683.94;5094767;28;20182;-72
2021/03/31 11:04:45;;;;;;;14.57;9.30;;;;;;;22.69;29.68;101691.47;5093280;28;20198;-70
2021/03/31 11:07:10;;;;;;;15.40;8.33;;;;;;;25.03;26.36;101688.25;5094878;28;20182;-71
2021/03/31 11:09:39;;;;;;;14.57;9.03;;;;;;;26.40;24.11;101683.06;5093586;28;20205;-72
2021/03/31 11:12:05;;;;;;;18.97;9.53;;;;;;;27.13;22.18;101682.47;5093813;28;20246;-71
2021/03/31 11:14:30;;;;;;;17.70;9.30;;;;;;;26.65;22.40;101680.41;5093970;28;20583;-71
2021/03/31 11:17:02;;;;;;;18.40;8.97;;;;;;;28.27;20.86;101679.72;5094842;28;20583;-72
2021/03/31 11:27:59;;;;;;;14.07;9.03;;;;;;;28.38;20.26;101656.53;5037592;28;20632;-72
2021/03/31 11:30:25;;;;;;;14.83;8.20;;;;;;;29.78;18.48;101654.41;5076122;28;20236;-72
2021/03/31 11:32:50;;;;;;;9.48;6.35;;;;;;;30.51;16.78;101655.50;5094804;28;20171;-72
2021/03/31 11:35:15;;;;;;;13.13;7.10;;;;;;;32.05;16.33;101651.38;5101125;28;20171;-73
2021/03/31 11:37:41;;;;;;;11.00;6.90;;;;;;;30.67;16.84;101652.56;5101153;28;20189;-73
2021/03/31 11:40:07;;;;;;;12.95;7.60;;;;;;;29.74;17.90;101638.47;5104312;28;20200;-72
2021/03/31 11:42:32;;;;;;;11.68;7.20;;;;;;;30.10;18.09;101635.84;5100911;28;20257;-72
2021/03/31 11:44:58;;;;;;;12.02;6.60;;;;;;;30.69;17.95;101628.41;5096569;28;20194;-72